Time,TemperatureF,DewpointF,PressureIn,WindDirection,WindDirectionDegrees,WindSpeedMPH,WindSpeedGustMPH,Humidity,HourlyPrecipIn,Conditions,Clouds,dailyrainin,SoftwareType,DateUTC
2013-02-17 00:02:00,30.0,17.0,30.14,North,356,4.0,6.0,59,0.00,,,0.00,,2013-02-17 05:02:00,
2013-02-17 00:12:00,30.0,17.0,30.15,West,273,5.0,12.0,59,0.00,,,0.00,,2013-02-17 05:12:00,
2013-02-17 00:22:00,30.0,17.0,30.15,West,273,5.0,12.0,59,0.00,,,0.00,,2013-02-17 05:22:00,
2013-02-17 00:33:00,30.0,15.0,30.14,ESE,107,5.0,9.0,54,0.00,,,0.00,,2013-02-17 05:33:00,
2013-02-17 00:42:00,30.0,15.0,30.14,ESE,107,5.0,9.0,54,0.00,,,0.00,,2013-02-17 05:42:00,
2013-02-17 00:52:00,29.0,14.0,30.14,WNW,298,8.0,14.0,54,0.00,,,0.00,,2013-02-17 05:52:00,
2013-02-17 01:02:00,29.0,15.0,30.15,WSW,255,5.0,7.0,55,0.00,,,0.00,,2013-02-17 06:02:00,
2013-02-17 01:11:00,29.0,15.0,30.15,WSW,255,5.0,7.0,55,0.00,,,0.00,,2013-02-17 06:11:00,
2013-02-17 01:21:00,29.0,15.0,30.15,South,174,3.0,5.0,55,0.00,,,0.00,,2013-02-17 06:21:00,
2013-02-17 01:31:00,29.0,14.0,30.15,North,359,6.0,10.0,54,0.00,,,0.00,,2013-02-17 06:31:00,
2013-02-17 01:42:00,29.0,14.0,30.15,North,359,6.0,10.0,54,0.00,,,0.00,,2013-02-17 06:42:00,
2013-02-17 01:51:00,28.0,14.0,30.15,WSW,238,3.0,4.0,55,0.00,,,0.00,,2013-02-17 06:51:00,
2013-02-17 02:01:00,28.0,13.0,30.15,WSW,249,10.0,15.0,52,0.00,,,0.00,,2013-02-17 07:01:00,
2013-02-17 02:11:00,28.0,13.0,30.15,WNW,291,7.0,8.0,53,0.00,,,0.00,,2013-02-17 07:11:00,
2013-02-17 02:21:00,28.0,13.0,30.15,WNW,291,7.0,8.0,53,0.00,,,0.00,,2013-02-17 07:21:00,
2013-02-17 02:32:00,28.0,13.0,30.15,West,262,8.0,12.0,52,0.00,,,0.00,,2013-02-17 07:32:00,
2013-02-17 02:42:00,28.0,13.0,30.15,West,262,8.0,12.0,52,0.00,,,0.00,,2013-02-17 07:42:00,
2013-02-17 02:51:00,28.0,12.0,30.16,WSW,239,5.0,9.0,51,0.00,,,0.00,,2013-02-17 07:51:00,
2013-02-17 03:01:00,27.0,12.0,30.16,SW,224,5.0,7.0,52,0.00,,,0.00,,2013-02-17 08:01:00,
2013-02-17 03:11:00,27.0,12.0,30.16,SW,224,5.0,7.0,52,0.00,,,0.00,,2013-02-17 08:11:00,
2013-02-17 03:21:00,27.0,13.0,30.15,WSW,239,9.0,14.0,54,0.00,,,0.00,,2013-02-17 08:21:00,
2013-02-17 03:32:00,28.0,14.0,30.15,NNE,20,7.0,12.0,54,0.00,,,0.00,,2013-02-17 08:32:00,
2013-02-17 03:52:00,27.0,13.0,30.16,ESE,110,3.0,5.0,54,0.00,,,0.00,,2013-02-17 08:52:00,
2013-02-17 04:02:00,27.0,12.0,30.15,West,262,8.0,10.0,53,0.00,,,0.00,,2013-02-17 09:02:00,
2013-02-17 04:11:00,27.0,12.0,30.15,West,262,8.0,10.0,53,0.00,,,0.00,,2013-02-17 09:11:00,
2013-02-17 04:21:00,27.0,13.0,30.17,East,80,12.0,22.0,54,0.00,,,0.00,,2013-02-17 09:21:00,
2013-02-17 04:31:00,27.0,13.0,30.16,North,1,8.0,14.0,56,0.00,,,0.00,,2013-02-17 09:31:00,
2013-02-17 04:52:00,27.0,13.0,30.18,SE,142,1.0,4.0,55,0.00,,,0.00,,2013-02-17 09:52:00,
2013-02-17 05:01:00,27.0,14.0,30.18,NW,319,2.0,6.0,57,0.00,,,0.00,,2013-02-17 10:01:00,
2013-02-17 05:11:00,27.0,15.0,30.17,SW,222,4.0,6.0,59,0.00,,,0.00,,2013-02-17 10:11:00,
2013-02-17 05:21:00,27.0,15.0,30.17,SW,222,4.0,6.0,59,0.00,,,0.00,,2013-02-17 10:21:00,
2013-02-17 05:32:00,26.0,14.0,30.19,WSW,245,7.0,10.0,59,0.00,,,0.00,,2013-02-17 10:32:00,
2013-02-17 05:42:00,26.0,14.0,30.19,WSW,245,7.0,10.0,59,0.00,,,0.00,,2013-02-17 10:42:00,
2013-02-17 05:52:00,26.0,13.0,30.19,NNE,23,3.0,6.0,57,0.00,,,0.00,,2013-02-17 10:52:00,
2013-02-17 06:01:00,26.0,12.0,30.19,WSW,250,7.0,13.0,55,0.00,,,0.00,,2013-02-17 11:01:00,
2013-02-17 06:11:00,26.0,12.0,30.19,WSW,250,7.0,13.0,55,0.00,,,0.00,,2013-02-17 11:11:00,
2013-02-17 06:21:00,26.0,12.0,30.20,West,266,5.0,12.0,55,0.00,,,0.00,,2013-02-17 11:21:00,
2013-02-17 06:32:00,27.0,13.0,30.20,SW,214,5.0,8.0,55,0.00,,,0.00,,2013-02-17 11:32:00,
2013-02-17 06:42:00,27.0,13.0,30.20,SW,214,5.0,8.0,55,0.00,,,0.00,,2013-02-17 11:42:00,
2013-02-17 06:52:00,26.0,12.0,30.21,East,100,8.0,11.0,55,0.00,,,0.00,,2013-02-17 11:52:00,
2013-02-17 07:03:00,26.0,12.0,30.21,WSW,245,9.0,20.0,56,0.00,,,0.00,,2013-02-17 12:03:00,
2013-02-17 07:11:00,26.0,12.0,30.21,WSW,245,9.0,20.0,56,0.00,,,0.00,,2013-02-17 12:11:00,
2013-02-17 07:22:00,27.0,13.0,30.21,West,281,8.0,11.0,55,0.00,,,0.00,,2013-02-17 12:22:00,
2013-02-17 07:32:00,27.0,13.0,30.21,WSW,252,2.0,9.0,56,0.00,,,0.00,,2013-02-17 12:32:00,
2013-02-17 07:42:00,27.0,13.0,30.21,WSW,252,2.0,9.0,56,0.00,,,0.00,,2013-02-17 12:42:00,
2013-02-17 07:52:00,27.0,14.0,30.22,WNW,290,3.0,7.0,57,0.00,,,0.00,,2013-02-17 12:52:00,
2013-02-17 08:02:00,27.0,14.0,30.22,ENE,68,3.0,7.0,57,0.00,,,0.00,,2013-02-17 13:02:00,
2013-02-17 08:12:00,27.0,14.0,30.22,ENE,68,3.0,7.0,57,0.00,,,0.00,,2013-02-17 13:12:00,
2013-02-17 08:22:00,27.0,13.0,30.23,WNW,294,7.0,10.0,56,0.00,,,0.00,,2013-02-17 13:22:00,
2013-02-17 08:32:00,28.0,14.0,30.23,West,262,5.0,9.0,55,0.00,,,0.00,,2013-02-17 13:32:00,
2013-02-17 08:42:00,28.0,14.0,30.23,West,262,5.0,9.0,55,0.00,,,0.00,,2013-02-17 13:42:00,
2013-02-17 08:51:00,28.0,14.0,30.24,WNW,288,6.0,10.0,54,0.00,,,0.00,,2013-02-17 13:51:00,
2013-02-17 09:01:00,30.0,15.0,30.25,West,271,4.0,7.0,53,0.00,,,0.00,,2013-02-17 14:01:00,
2013-02-17 09:11:00,30.0,15.0,30.25,West,271,4.0,7.0,53,0.00,,,0.00,,2013-02-17 14:11:00,
2013-02-17 09:21:00,31.0,15.0,30.24,SE,142,6.0,9.0,52,0.00,,,0.00,,2013-02-17 14:21:00,
2013-02-17 09:32:00,31.0,15.0,30.25,West,274,9.0,12.0,52,0.00,,,0.00,,2013-02-17 14:32:00,
2013-02-17 09:42:00,31.0,15.0,30.25,West,274,9.0,12.0,52,0.00,,,0.00,,2013-02-17 14:42:00,
2013-02-17 09:52:00,32.0,15.0,30.24,East,93,6.0,14.0,50,0.00,,,0.00,,2013-02-17 14:52:00,
2013-02-17 10:02:00,32.0,15.0,30.25,SSW,212,5.0,8.0,49,0.00,,,0.00,,2013-02-17 15:02:00,
2013-02-17 10:11:00,32.0,15.0,30.25,SSW,212,5.0,8.0,49,0.00,,,0.00,,2013-02-17 15:11:00,
2013-02-17 10:21:00,32.0,15.0,30.24,NNE,25,4.0,7.0,50,0.00,,,0.00,,2013-02-17 15:21:00,
2013-02-17 10:32:00,34.0,15.0,30.26,NW,319,10.0,13.0,46,0.00,,,0.00,,2013-02-17 15:32:00,
2013-02-17 10:42:00,34.0,15.0,30.26,NW,319,10.0,13.0,46,0.00,,,0.00,,2013-02-17 15:42:00,
2013-02-17 10:52:00,34.0,16.0,30.26,WSW,240,3.0,5.0,47,0.00,,,0.00,,2013-02-17 15:52:00,
2013-02-17 11:01:00,35.0,15.0,30.26,West,264,2.0,8.0,43,0.00,,,0.00,,2013-02-17 16:01:00,
2013-02-17 11:12:00,35.0,15.0,30.26,West,264,2.0,8.0,43,0.00,,,0.00,,2013-02-17 16:12:00,
2013-02-17 11:21:00,34.0,14.0,30.26,NNW,343,14.0,31.0,43,0.00,,,0.00,,2013-02-17 16:21:00,
2013-02-17 11:32:00,36.0,14.0,30.27,NNW,346,11.0,17.0,40,0.00,,,0.00,,2013-02-17 16:32:00,
2013-02-17 11:42:00,36.0,14.0,30.27,NNW,346,11.0,17.0,40,0.00,,,0.00,,2013-02-17 16:42:00,
2013-02-17 11:51:00,35.0,14.0,30.27,SE,136,5.0,13.0,42,0.00,,,0.00,,2013-02-17 16:51:00,
2013-02-17 12:02:00,37.0,14.0,30.27,North,0,7.0,17.0,39,0.00,,,0.00,,2013-02-17 17:02:00,
2013-02-17 12:11:00,37.0,14.0,30.27,North,0,7.0,17.0,39,0.00,,,0.00,,2013-02-17 17:11:00,
2013-02-17 12:21:00,39.0,16.0,30.26,ENE,68,8.0,10.0,38,0.00,,,0.00,,2013-02-17 17:21:00,
2013-02-17 12:32:00,40.0,15.0,30.26,SW,228,7.0,10.0,36,0.00,,,0.00,,2013-02-17 17:32:00,
2013-02-17 12:42:00,40.0,15.0,30.26,SW,228,7.0,10.0,36,0.00,,,0.00,,2013-02-17 17:42:00,
2013-02-17 12:52:00,38.0,14.0,30.26,ESE,113,5.0,9.0,37,0.00,,,0.00,,2013-02-17 17:52:00,
2013-02-17 13:02:00,39.0,12.0,30.26,NE,55,14.0,26.0,33,0.00,,,0.00,,2013-02-17 18:02:00,
2013-02-17 13:11:00,39.0,12.0,30.26,NE,55,14.0,26.0,33,0.00,,,0.00,,2013-02-17 18:11:00,
2013-02-17 13:22:00,39.0,13.0,30.25,NE,51,12.0,20.0,34,0.00,,,0.00,,2013-02-17 18:22:00,
2013-02-17 13:33:00,41.0,15.0,30.25,SSE,159,4.0,9.0,35,0.00,,,0.00,,2013-02-17 18:33:00,
2013-02-17 13:42:00,41.0,15.0,30.25,SSE,159,4.0,9.0,35,0.00,,,0.00,,2013-02-17 18:42:00,
2013-02-17 13:52:00,41.0,15.0,30.24,SE,141,9.0,19.0,35,0.00,,,0.00,,2013-02-17 18:52:00,
2013-02-17 14:01:00,41.0,13.0,30.24,ENE,66,7.0,11.0,32,0.00,,,0.00,,2013-02-17 19:01:00,
2013-02-17 14:11:00,41.0,13.0,30.24,ENE,66,7.0,11.0,32,0.00,,,0.00,,2013-02-17 19:11:00,
2013-02-17 14:21:00,42.0,14.0,30.24,NNE,32,7.0,12.0,31,0.00,,,0.00,,2013-02-17 19:21:00,
2013-02-17 14:32:00,44.0,15.0,30.24,NNE,13,4.0,8.0,31,0.00,,,0.00,,2013-02-17 19:32:00,
2013-02-17 14:42:00,44.0,15.0,30.24,NNE,13,4.0,8.0,31,0.00,,,0.00,,2013-02-17 19:42:00,
2013-02-17 14:51:00,42.0,13.0,30.24,NE,44,4.0,8.0,30,0.00,,,0.00,,2013-02-17 19:51:00,
2013-02-17 15:02:00,42.0,14.0,30.24,NE,39,8.0,13.0,32,0.00,,,0.00,,2013-02-17 20:02:00,
2013-02-17 15:11:00,42.0,14.0,30.24,NE,39,8.0,13.0,32,0.00,,,0.00,,2013-02-17 20:11:00,
2013-02-17 15:21:00,42.0,14.0,30.24,NE,53,5.0,10.0,32,0.00,,,0.00,,2013-02-17 20:21:00,
2013-02-17 15:32:00,42.0,15.0,30.24,NNW,338,5.0,9.0,33,0.00,,,0.00,,2013-02-17 20:32:00,
2013-02-17 15:42:00,42.0,15.0,30.24,NNW,338,5.0,9.0,33,0.00,,,0.00,,2013-02-17 20:42:00,
2013-02-17 15:52:00,42.0,14.0,30.24,East,83,6.0,11.0,32,0.00,,,0.00,,2013-02-17 20:52:00,
2013-02-17 16:02:00,43.0,14.0,30.24,ESE,115,1.0,3.0,30,0.00,,,0.00,,2013-02-17 21:02:00,
2013-02-17 16:11:00,43.0,14.0,30.24,ESE,115,1.0,3.0,30,0.00,,,0.00,,2013-02-17 21:11:00,
2013-02-17 16:21:00,43.0,12.0,30.25,WSW,255,6.0,10.0,28,0.00,,,0.00,,2013-02-17 21:21:00,
2013-02-17 16:32:00,42.0,13.0,30.25,East,91,4.0,7.0,30,0.00,,,0.00,,2013-02-17 21:32:00,
2013-02-17 16:42:00,42.0,13.0,30.25,East,91,4.0,7.0,30,0.00,,,0.00,,2013-02-17 21:42:00,
2013-02-17 16:52:00,44.0,13.0,30.26,ESE,115,4.0,8.0,28,0.00,,,0.00,,2013-02-17 21:52:00,
2013-02-17 17:01:00,41.0,13.0,30.26,NW,325,4.0,7.0,31,0.00,,,0.00,,2013-02-17 22:01:00,
2013-02-17 17:12:00,41.0,13.0,30.26,NW,325,4.0,7.0,31,0.00,,,0.00,,2013-02-17 22:12:00,
2013-02-17 17:22:00,41.0,12.0,30.26,SSW,205,4.0,6.0,30,0.00,,,0.00,,2013-02-17 22:22:00,
2013-02-17 17:32:00,41.0,15.0,30.27,SSW,207,2.0,3.0,35,0.00,,,0.00,,2013-02-17 22:32:00,
2013-02-17 17:52:00,40.0,11.0,30.27,North,350,4.0,5.0,30,0.00,,,0.00,,2013-02-17 22:52:00,
2013-02-17 18:02:00,40.0,13.0,30.28,NE,41,7.0,10.0,32,0.00,,,0.00,,2013-02-17 23:02:00,
2013-02-17 18:11:00,40.0,13.0,30.28,NE,41,7.0,10.0,32,0.00,,,0.00,,2013-02-17 23:11:00,
2013-02-17 18:21:00,39.0,12.0,30.28,WNW,302,4.0,6.0,33,0.00,,,0.00,,2013-02-17 23:21:00,
2013-02-17 18:32:00,39.0,12.0,30.29,South,176,0.0,0.0,33,0.00,,,0.00,,2013-02-17 23:32:00,
2013-02-17 18:42:00,39.0,12.0,30.29,South,176,0.0,0.0,33,0.00,,,0.00,,2013-02-17 23:42:00,
2013-02-17 18:52:00,39.0,13.0,30.29,North,352,1.0,3.0,34,0.00,,,0.00,,2013-02-17 23:52:00,
2013-02-17 19:01:00,38.0,13.0,30.29,North,350,0.0,0.0,36,0.00,,,0.00,,2013-02-18 00:01:00,
2013-02-17 19:11:00,38.0,13.0,30.29,North,350,0.0,0.0,36,0.00,,,0.00,,2013-02-18 00:11:00,
2013-02-17 19:22:00,37.0,13.0,30.31,SW,214,0.0,0.0,36,0.00,,,0.00,,2013-02-18 00:22:00,
2013-02-17 19:32:00,37.0,14.0,30.31,NE,42,5.0,7.0,39,0.00,,,0.00,,2013-02-18 00:32:00,
2013-02-17 19:42:00,37.0,14.0,30.31,NE,42,5.0,7.0,39,0.00,,,0.00,,2013-02-18 00:42:00,
2013-02-17 19:52:00,37.0,14.0,30.31,NW,307,1.0,2.0,38,0.00,,,0.00,,2013-02-18 00:52:00,
2013-02-17 20:01:00,37.0,14.0,30.32,NNE,13,0.0,0.0,38,0.00,,,0.00,,2013-02-18 01:01:00,
2013-02-17 20:12:00,37.0,14.0,30.32,NNE,13,0.0,0.0,38,0.00,,,0.00,,2013-02-18 01:12:00,
2013-02-17 20:21:00,37.0,14.0,30.32,WSW,246,0.0,0.0,39,0.00,,,0.00,,2013-02-18 01:21:00,
2013-02-17 20:32:00,37.0,15.0,30.33,West,276,0.0,2.0,40,0.00,,,0.00,,2013-02-18 01:32:00,
2013-02-17 20:42:00,37.0,15.0,30.33,West,276,0.0,2.0,40,0.00,,,0.00,,2013-02-18 01:42:00,
2013-02-17 20:52:00,36.0,15.0,30.34,WNW,288,0.0,0.0,42,0.00,,,0.00,,2013-02-18 01:52:00,
2013-02-17 21:02:00,33.0,17.0,30.34,WNW,288,0.0,0.0,51,0.00,,,0.00,,2013-02-18 02:02:00,
2013-02-17 21:22:00,32.0,16.0,30.34,NNE,15,1.0,6.0,52,0.00,,,0.00,,2013-02-18 02:22:00,
2013-02-17 21:32:00,32.0,19.0,30.35,WSW,249,0.0,0.0,59,0.00,,,0.00,,2013-02-18 02:32:00,
2013-02-17 21:52:00,30.0,17.0,30.35,SSW,198,0.0,0.0,57,0.00,,,0.00,,2013-02-18 02:52:00,
2013-02-17 22:02:00,30.0,17.0,30.35,SE,125,3.0,5.0,59,0.00,,,0.00,,2013-02-18 03:02:00,
2013-02-17 22:21:00,30.0,18.0,30.36,SSE,160,0.0,0.0,60,0.00,,,0.00,,2013-02-18 03:21:00,
2013-02-17 22:32:00,29.0,16.0,30.36,WSW,238,0.0,0.0,59,0.00,,,0.00,,2013-02-18 03:32:00,
2013-02-17 22:42:00,29.0,16.0,30.36,WSW,238,0.0,0.0,59,0.00,,,0.00,,2013-02-18 03:42:00,
2013-02-17 22:51:00,28.0,16.0,30.37,SSE,155,0.0,0.0,61,0.00,,,0.00,,2013-02-18 03:51:00,
2013-02-17 23:01:00,28.0,17.0,30.36,SSE,155,0.0,0.0,63,0.00,,,0.00,,2013-02-18 04:01:00,
2013-02-17 23:11:00,28.0,17.0,30.36,SSE,155,0.0,0.0,63,0.00,,,0.00,,2013-02-18 04:11:00,
2013-02-17 23:21:00,28.0,17.0,30.36,SSE,155,0.0,0.0,64,0.00,,,0.00,,2013-02-18 04:21:00,
2013-02-17 23:32:00,28.0,17.0,30.36,SSE,155,0.0,0.0,62,0.00,,,0.00,,2013-02-18 04:32:00,
2013-02-17 23:42:00,28.0,17.0,30.36,SSE,155,0.0,0.0,62,0.00,,,0.00,,2013-02-18 04:42:00,
2013-02-17 23:51:00,28.0,17.0,30.37,SSE,155,0.0,0.0,63,0.00,,,0.00,,2013-02-18 04:51:00,